sensor_id;sensor_type;location;lat;lon;timestamp;P1;durP1;ratioP1;P2;durP2;ratioP2
63201;SDS011;49296;48.188;11.566;2023-09-30T00:02:07;22.55;;;9.48;;
63201;SDS011;49296;48.188;11.566;2023-09-30T00:04:34;25.08;;;9.02;;
63201;SDS011;49296;48.188;11.566;2023-09-30T00:07:00;23.70;;;8.88;;
63201;SDS011;49296;48.188;11.566;2023-09-30T00:09:27;27.58;;;10.77;;
63201;SDS011;49296;48.188;11.566;2023-09-30T00:11:54;23.48;;;9.43;;
63201;SDS011;49296;48.188;11.566;2023-09-30T00:14:22;22.98;;;9.82;;
63201;SDS011;49296;48.188;11.566;2023-09-30T00:16:50;19.42;;;7.93;;
63201;SDS011;49296;48.188;11.566;2023-09-30T00:19:17;21.58;;;9.35;;
63201;SDS011;49296;48.188;11.566;2023-09-30T00:21:43;24.33;;;9.63;;
63201;SDS011;49296;48.188;11.566;2023-09-30T00:24:10;24.38;;;9.00;;
63201;SDS011;49296;48.188;11.566;2023-09-30T00:26:37;24.02;;;8.80;;
63201;SDS011;49296;48.188;11.566;2023-09-30T00:29:04;24.13;;;7.97;;
63201;SDS011;49296;48.188;11.566;2023-09-30T00:31:32;27.48;;;9.10;;
63201;SDS011;49296;48.188;11.566;2023-09-30T00:33:58;21.25;;;8.35;;
63201;SDS011;49296;48.188;11.566;2023-09-30T00:36:25;24.27;;;8.40;;
63201;SDS011;49296;48.188;11.566;2023-09-30T00:38:52;24.98;;;9.10;;
63201;SDS011;49296;48.188;11.566;2023-09-30T00:41:19;24.27;;;9.35;;
63201;SDS011;49296;48.188;11.566;2023-09-30T00:43:45;23.17;;;9.93;;
63201;SDS011;49296;48.188;11.566;2023-09-30T00:46:15;23.50;;;9.63;;
63201;SDS011;49296;48.188;11.566;2023-09-30T00:48:53;27.40;;;9.33;;
63201;SDS011;49296;48.188;11.566;2023-09-30T00:51:21;28.13;;;9.60;;
63201;SDS011;49296;48.188;11.566;2023-09-30T00:53:49;25.67;;;10.15;;
63201;SDS011;49296;48.188;11.566;2023-09-30T00:56:17;24.25;;;8.20;;
63201;SDS011;49296;48.188;11.566;2023-09-30T00:58:44;25.17;;;9.98;;
63201;SDS011;49296;48.188;11.566;2023-09-30T01:01:12;22.52;;;9.98;;
63201;SDS011;49296;48.188;11.566;2023-09-30T01:03:39;25.58;;;9.95;;
63201;SDS011;49296;48.188;11.566;2023-09-30T01:06:07;22.10;;;9.38;;
63201;SDS011;49296;48.188;11.566;2023-09-30T01:08:34;23.73;;;9.57;;
63201;SDS011;49296;48.188;11.566;2023-09-30T01:11:01;22.83;;;10.75;;
63201;SDS011;49296;48.188;11.566;2023-09-30T01:13:31;21.98;;;8.35;;
63201;SDS011;49296;48.188;11.566;2023-09-30T01:15:58;22.83;;;9.85;;
63201;SDS011;49296;48.188;11.566;2023-09-30T01:18:29;23.63;;;9.32;;
63201;SDS011;49296;48.188;11.566;2023-09-30T01:20:56;23.70;;;9.18;;
63201;SDS011;49296;48.188;11.566;2023-09-30T01:23:26;26.10;;;9.65;;
63201;SDS011;49296;48.188;11.566;2023-09-30T01:25:54;26.73;;;9.80;;
63201;SDS011;49296;48.188;11.566;2023-09-30T01:28:20;26.73;;;9.90;;
63201;SDS011;49296;48.188;11.566;2023-09-30T01:30:48;24.38;;;9.60;;
63201;SDS011;49296;48.188;11.566;2023-09-30T01:33:14;24.60;;;9.57;;
63201;SDS011;49296;48.188;11.566;2023-09-30T01:35:44;27.67;;;9.77;;
63201;SDS011;49296;48.188;11.566;2023-09-30T01:38:10;24.67;;;10.70;;
63201;SDS011;49296;48.188;11.566;2023-09-30T01:40:38;23.08;;;9.70;;
63201;SDS011;49296;48.188;11.566;2023-09-30T01:43:05;23.70;;;10.52;;
63201;SDS011;49296;48.188;11.566;2023-09-30T01:45:32;24.05;;;9.55;;
63201;SDS011;49296;48.188;11.566;2023-09-30T01:48:00;23.75;;;9.70;;
63201;SDS011;49296;48.188;11.566;2023-09-30T01:50:27;28.67;;;10.88;;
63201;SDS011;49296;48.188;11.566;2023-09-30T01:52:53;26.50;;;11.27;;
63201;SDS011;49296;48.188;11.566;2023-09-30T01:55:20;27.00;;;10.23;;
63201;SDS011;49296;48.188;11.566;2023-09-30T01:57:48;25.73;;;10.68;;
63201;SDS011;49296;48.188;11.566;2023-09-30T02:00:15;26.77;;;10.10;;
63201;SDS011;49296;48.188;11.566;2023-09-30T02:02:42;25.50;;;10.30;;
63201;SDS011;49296;48.188;11.566;2023-09-30T02:05:09;23.73;;;9.88;;
63201;SDS011;49296;48.188;11.566;2023-09-30T02:07:36;25.27;;;10.32;;
63201;SDS011;49296;48.188;11.566;2023-09-30T02:10:03;24.48;;;10.48;;
63201;SDS011;49296;48.188;11.566;2023-09-30T02:12:30;27.35;;;10.50;;
63201;SDS011;49296;48.188;11.566;2023-09-30T02:14:59;25.42;;;9.57;;
63201;SDS011;49296;48.188;11.566;2023-09-30T02:17:25;25.73;;;11.07;;
63201;SDS011;49296;48.188;11.566;2023-09-30T02:19:52;29.50;;;9.95;;
63201;SDS011;49296;48.188;11.566;2023-09-30T02:22:20;25.40;;;10.98;;
63201;SDS011;49296;48.188;11.566;2023-09-30T02:24:46;25.55;;;10.95;;
63201;SDS011;49296;48.188;11.566;2023-09-30T02:27:14;27.77;;;11.18;;
63201;SDS011;49296;48.188;11.566;2023-09-30T02:29:41;25.10;;;9.48;;
63201;SDS011;49296;48.188;11.566;2023-09-30T02:32:09;21.52;;;10.55;;
63201;SDS011;49296;48.188;11.566;2023-09-30T02:34:35;24.95;;;9.25;;
63201;SDS011;49296;48.188;11.566;2023-09-30T02:37:03;25.10;;;9.98;;
63201;SDS011;49296;48.188;11.566;2023-09-30T02:39:29;25.27;;;10.40;;
63201;SDS011;49296;48.188;11.566;2023-09-30T02:41:56;26.92;;;10.75;;
63201;SDS011;49296;48.188;11.566;2023-09-30T02:44:23;24.50;;;9.43;;
63201;SDS011;49296;48.188;11.566;2023-09-30T02:46:49;27.13;;;10.10;;
63201;SDS011;49296;48.188;11.566;2023-09-30T02:49:17;27.05;;;11.10;;
63201;SDS011;49296;48.188;11.566;2023-09-30T02:51:44;22.95;;;10.43;;
63201;SDS011;49296;48.188;11.566;2023-09-30T02:54:11;26.40;;;9.93;;
63201;SDS011;49296;48.188;11.566;2023-09-30T02:56:40;25.25;;;10.40;;
63201;SDS011;49296;48.188;11.566;2023-09-30T02:59:07;26.25;;;10.57;;
63201;SDS011;49296;48.188;11.566;2023-09-30T03:01:33;28.55;;;10.70;;
63201;SDS011;49296;48.188;11.566;2023-09-30T03:04:00;27.35;;;10.45;;
63201;SDS011;49296;48.188;11.566;2023-09-30T03:06:28;30.45;;;10.60;;
63201;SDS011;49296;48.188;11.566;2023-09-30T03:08:55;25.58;;;10.18;;
63201;SDS011;49296;48.188;11.566;2023-09-30T03:11:22;27.52;;;10.90;;
63201;SDS011;49296;48.188;11.566;2023-09-30T03:13:48;25.05;;;9.55;;
63201;SDS011;49296;48.188;11.566;2023-09-30T03:16:15;29.92;;;11.77;;
63201;SDS011;49296;48.188;11.566;2023-09-30T03:18:42;25.15;;;11.93;;
63201;SDS011;49296;48.188;11.566;2023-09-30T03:21:13;29.45;;;10.27;;
63201;SDS011;49296;48.188;11.566;2023-09-30T03:23:41;25.80;;;10.43;;
63201;SDS011;49296;48.188;11.566;2023-09-30T03:26:08;27.30;;;11.18;;
63201;SDS011;49296;48.188;11.566;2023-09-30T03:28:35;24.17;;;9.57;;
63201;SDS011;49296;48.188;11.566;2023-09-30T03:31:02;26.15;;;10.23;;
63201;SDS011;49296;48.188;11.566;2023-09-30T03:33:30;22.92;;;9.70;;
63201;SDS011;49296;48.188;11.566;2023-09-30T03:35:58;24.58;;;9.52;;
63201;SDS011;49296;48.188;11.566;2023-09-30T03:38:25;25.63;;;10.85;;
63201;SDS011;49296;48.188;11.566;2023-09-30T03:40:53;21.10;;;9.38;;
63201;SDS011;49296;48.188;11.566;2023-09-30T03:43:20;23.85;;;10.52;;
63201;SDS011;49296;48.188;11.566;2023-09-30T03:45:48;21.08;;;9.57;;
63201;SDS011;49296;48.188;11.566;2023-09-30T03:48:15;23.27;;;9.27;;
63201;SDS011;49296;48.188;11.566;2023-09-30T03:50:43;22.50;;;8.05;;
63201;SDS011;49296;48.188;11.566;2023-09-30T03:53:10;22.75;;;9.40;;
63201;SDS011;49296;48.188;11.566;2023-09-30T03:55:37;25.88;;;9.57;;
63201;SDS011;49296;48.188;11.566;2023-09-30T03:58:05;20.10;;;8.77;;
63201;SDS011;49296;48.188;11.566;2023-09-30T04:00:31;23.40;;;9.02;;
63201;SDS011;49296;48.188;11.566;2023-09-30T04:02:58;24.15;;;9.48;;
63201;SDS011;49296;48.188;11.566;2023-09-30T04:05:25;23.00;;;10.20;;
63201;SDS011;49296;48.188;11.566;2023-09-30T04:07:55;28.02;;;10.55;;
63201;SDS011;49296;48.188;11.566;2023-09-30T04:10:21;23.95;;;9.10;;
63201;SDS011;49296;48.188;11.566;2023-09-30T04:12:48;25.35;;;8.57;;
63201;SDS011;49296;48.188;11.566;2023-09-30T04:15:17;24.85;;;9.40;;
63201;SDS011;49296;48.188;11.566;2023-09-30T04:17:44;19.55;;;8.63;;
63201;SDS011;49296;48.188;11.566;2023-09-30T04:20:11;22.33;;;8.10;;
63201;SDS011;49296;48.188;11.566;2023-09-30T04:22:42;21.67;;;9.55;;
63201;SDS011;49296;48.188;11.566;2023-09-30T04:25:13;22.23;;;9.38;;
63201;SDS011;49296;48.188;11.566;2023-09-30T04:27:41;23.27;;;9.65;;
63201;SDS011;49296;48.188;11.566;2023-09-30T04:30:09;24.17;;;8.68;;
63201;SDS011;49296;48.188;11.566;2023-09-30T04:32:38;23.65;;;9.13;;
63201;SDS011;49296;48.188;11.566;2023-09-30T04:35:05;23.92;;;9.07;;
63201;SDS011;49296;48.188;11.566;2023-09-30T04:37:32;27.17;;;9.57;;
63201;SDS011;49296;48.188;11.566;2023-09-30T04:39:59;23.30;;;9.70;;
63201;SDS011;49296;48.188;11.566;2023-09-30T04:42:26;25.77;;;9.52;;
63201;SDS011;49296;48.188;11.566;2023-09-30T04:44:52;24.58;;;10.32;;
63201;SDS011;49296;48.188;11.566;2023-09-30T04:47:20;23.98;;;8.82;;
63201;SDS011;49296;48.188;11.566;2023-09-30T04:49:50;22.70;;;8.95;;
63201;SDS011;49296;48.188;11.566;2023-09-30T04:52:17;23.50;;;9.68;;
63201;SDS011;49296;48.188;11.566;2023-09-30T04:54:44;24.17;;;10.25;;
63201;SDS011;49296;48.188;11.566;2023-09-30T04:57:11;25.73;;;8.48;;
63201;SDS011;49296;48.188;11.566;2023-09-30T04:59:38;23.92;;;9.13;;
63201;SDS011;49296;48.188;11.566;2023-09-30T05:02:04;21.33;;;8.77;;
63201;SDS011;49296;48.188;11.566;2023-09-30T05:04:31;24.20;;;9.63;;
63201;SDS011;49296;48.188;11.566;2023-09-30T05:06:59;21.00;;;8.27;;
63201;SDS011;49296;48.188;11.566;2023-09-30T05:09:25;22.42;;;9.15;;
63201;SDS011;49296;48.188;11.566;2023-09-30T05:11:53;22.70;;;8.80;;
63201;SDS011;49296;48.188;11.566;2023-09-30T05:14:20;22.00;;;8.32;;
63201;SDS011;49296;48.188;11.566;2023-09-30T05:16:47;23.60;;;8.13;;
63201;SDS011;49296;48.188;11.566;2023-09-30T05:19:13;22.85;;;8.52;;
63201;SDS011;49296;48.188;11.566;2023-09-30T05:21:40;21.52;;;8.32;;
63201;SDS011;49296;48.188;11.566;2023-09-30T05:24:08;19.27;;;8.45;;
63201;SDS011;49296;48.188;11.566;2023-09-30T05:26:36;26.60;;;8.98;;
63201;SDS011;49296;48.188;11.566;2023-09-30T05:29:02;20.85;;;8.43;;
63201;SDS011;49296;48.188;11.566;2023-09-30T05:31:29;21.58;;;9.15;;
63201;SDS011;49296;48.188;11.566;2023-09-30T05:33:56;22.67;;;8.98;;
63201;SDS011;49296;48.188;11.566;2023-09-30T05:36:22;20.15;;;8.68;;
63201;SDS011;49296;48.188;11.566;2023-09-30T05:38:49;24.42;;;8.90;;
63201;SDS011;49296;48.188;11.566;2023-09-30T05:41:17;18.40;;;7.75;;
63201;SDS011;49296;48.188;11.566;2023-09-30T05:43:45;21.52;;;8.43;;
63201;SDS011;49296;48.188;11.566;2023-09-30T05:46:12;22.23;;;8.25;;
63201;SDS011;49296;48.188;11.566;2023-09-30T05:48:39;20.33;;;8.32;;
63201;SDS011;49296;48.188;11.566;2023-09-30T05:51:06;22.45;;;9.35;;
63201;SDS011;49296;48.188;11.566;2023-09-30T05:53:33;18.90;;;7.68;;
63201;SDS011;49296;48.188;11.566;2023-09-30T05:56:01;21.08;;;8.35;;
63201;SDS011;49296;48.188;11.566;2023-09-30T05:58:30;19.52;;;8.32;;
63201;SDS011;49296;48.188;11.566;2023-09-30T06:00:57;18.50;;;7.53;;
63201;SDS011;49296;48.188;11.566;2023-09-30T06:03:25;21.15;;;7.45;;
63201;SDS011;49296;48.188;11.566;2023-09-30T06:05:54;21.23;;;7.93;;
63201;SDS011;49296;48.188;11.566;2023-09-30T06:08:21;19.80;;;8.65;;
63201;SDS011;49296;48.188;11.566;2023-09-30T06:10:48;20.80;;;8.38;;
63201;SDS011;49296;48.188;11.566;2023-09-30T06:13:14;19.10;;;7.57;;
63201;SDS011;49296;48.188;11.566;2023-09-30T06:15:43;20.48;;;8.48;;
63201;SDS011;49296;48.188;11.566;2023-09-30T06:18:11;17.83;;;7.30;;
63201;SDS011;49296;48.188;11.566;2023-09-30T06:20:40;18.50;;;6.63;;
63201;SDS011;49296;48.188;11.566;2023-09-30T06:23:06;20.13;;;7.80;;
63201;SDS011;49296;48.188;11.566;2023-09-30T06:25:35;19.77;;;6.80;;
63201;SDS011;49296;48.188;11.566;2023-09-30T06:28:01;18.48;;;6.70;;
63201;SDS011;49296;48.188;11.566;2023-09-30T06:30:29;16.58;;;6.82;;
63201;SDS011;49296;48.188;11.566;2023-09-30T06:32:57;16.42;;;7.03;;
63201;SDS011;49296;48.188;11.566;2023-09-30T06:35:24;19.55;;;7.57;;
63201;SDS011;49296;48.188;11.566;2023-09-30T06:37:51;25.48;;;8.27;;
63201;SDS011;49296;48.188;11.566;2023-09-30T06:40:18;20.20;;;8.23;;
63201;SDS011;49296;48.188;11.566;2023-09-30T06:42:45;22.70;;;8.20;;
63201;SDS011;49296;48.188;11.566;2023-09-30T06:45:12;18.17;;;8.20;;
63201;SDS011;49296;48.188;11.566;2023-09-30T06:47:39;21.85;;;7.38;;
63201;SDS011;49296;48.188;11.566;2023-09-30T06:50:09;16.95;;;6.82;;
63201;SDS011;49296;48.188;11.566;2023-09-30T06:52:37;23.13;;;7.85;;
63201;SDS011;49296;48.188;11.566;2023-09-30T06:55:06;16.13;;;6.38;;
63201;SDS011;49296;48.188;11.566;2023-09-30T06:57:34;16.52;;;6.65;;
63201;SDS011;49296;48.188;11.566;2023-09-30T07:00:01;16.55;;;7.43;;
63201;SDS011;49296;48.188;11.566;2023-09-30T07:02:33;18.90;;;6.57;;
63201;SDS011;49296;48.188;11.566;2023-09-30T07:05:01;15.13;;;5.90;;
63201;SDS011;49296;48.188;11.566;2023-09-30T07:07:31;15.57;;;6.80;;
63201;SDS011;49296;48.188;11.566;2023-09-30T07:09:57;13.85;;;5.43;;
63201;SDS011;49296;48.188;11.566;2023-09-30T07:12:24;14.82;;;5.07;;
63201;SDS011;49296;48.188;11.566;2023-09-30T07:14:50;13.55;;;5.50;;
63201;SDS011;49296;48.188;11.566;2023-09-30T07:17:17;13.77;;;5.13;;
63201;SDS011;49296;48.188;11.566;2023-09-30T07:19:44;14.07;;;5.80;;
63201;SDS011;49296;48.188;11.566;2023-09-30T07:22:10;11.93;;;4.72;;
63201;SDS011;49296;48.188;11.566;2023-09-30T07:24:39;11.70;;;4.70;;
63201;SDS011;49296;48.188;11.566;2023-09-30T07:27:06;13.35;;;4.40;;
63201;SDS011;49296;48.188;11.566;2023-09-30T07:29:33;10.18;;;4.97;;
63201;SDS011;49296;48.188;11.566;2023-09-30T07:31:59;16.00;;;5.05;;
63201;SDS011;49296;48.188;11.566;2023-09-30T07:34:26;11.15;;;4.30;;
63201;SDS011;49296;48.188;11.566;2023-09-30T07:36:53;12.90;;;4.72;;
63201;SDS011;49296;48.188;11.566;2023-09-30T07:39:20;12.52;;;4.63;;
63201;SDS011;49296;48.188;11.566;2023-09-30T07:41:48;11.27;;;4.80;;
63201;SDS011;49296;48.188;11.566;2023-09-30T07:44:15;10.35;;;4.35;;
63201;SDS011;49296;48.188;11.566;2023-09-30T07:46:41;11.98;;;5.35;;
63201;SDS011;49296;48.188;11.566;2023-09-30T07:49:08;13.95;;;4.90;;
63201;SDS011;49296;48.188;11.566;2023-09-30T07:51:36;12.38;;;5.60;;
63201;SDS011;49296;48.188;11.566;2023-09-30T07:54:04;14.98;;;5.60;;
63201;SDS011;49296;48.188;11.566;2023-09-30T07:56:31;15.18;;;5.47;;
63201;SDS011;49296;48.188;11.566;2023-09-30T07:58:59;13.20;;;5.57;;
63201;SDS011;49296;48.188;11.566;2023-09-30T08:01:27;12.45;;;4.90;;
63201;SDS011;49296;48.188;11.566;2023-09-30T08:03:54;15.38;;;5.95;;
63201;SDS011;49296;48.188;11.566;2023-09-30T08:06:21;14.07;;;5.97;;
63201;SDS011;49296;48.188;11.566;2023-09-30T08:08:48;14.70;;;5.68;;
63201;SDS011;49296;48.188;11.566;2023-09-30T08:11:15;13.18;;;5.50;;
63201;SDS011;49296;48.188;11.566;2023-09-30T08:13:44;16.10;;;5.70;;
63201;SDS011;49296;48.188;11.566;2023-09-30T08:16:12;13.73;;;5.03;;
63201;SDS011;49296;48.188;11.566;2023-09-30T08:18:39;14.90;;;5.30;;
63201;SDS011;49296;48.188;11.566;2023-09-30T08:21:08;15.27;;;5.10;;
63201;SDS011;49296;48.188;11.566;2023-09-30T08:23:36;12.85;;;5.22;;
63201;SDS011;49296;48.188;11.566;2023-09-30T08:26:04;14.73;;;5.38;;
63201;SDS011;49296;48.188;11.566;2023-09-30T08:28:30;13.95;;;5.35;;
63201;SDS011;49296;48.188;11.566;2023-09-30T08:31:01;11.70;;;5.18;;
63201;SDS011;49296;48.188;11.566;2023-09-30T08:33:31;13.95;;;5.70;;
63201;SDS011;49296;48.188;11.566;2023-09-30T08:36:01;13.75;;;5.70;;
63201;SDS011;49296;48.188;11.566;2023-09-30T08:38:32;13.75;;;6.10;;
63201;SDS011;49296;48.188;11.566;2023-09-30T08:40:59;16.17;;;5.75;;
63201;SDS011;49296;48.188;11.566;2023-09-30T08:43:27;14.57;;;5.60;;
63201;SDS011;49296;48.188;11.566;2023-09-30T08:45:56;12.82;;;4.93;;
63201;SDS011;49296;48.188;11.566;2023-09-30T08:48:23;13.80;;;5.22;;
63201;SDS011;49296;48.188;11.566;2023-09-30T08:50:52;11.48;;;4.80;;
63201;SDS011;49296;48.188;11.566;2023-09-30T08:53:20;13.68;;;5.30;;
63201;SDS011;49296;48.188;11.566;2023-09-30T08:55:48;11.93;;;4.55;;
63201;SDS011;49296;48.188;11.566;2023-09-30T08:58:19;11.75;;;6.03;;
63201;SDS011;49296;48.188;11.566;2023-09-30T09:00:47;14.82;;;5.65;;
63201;SDS011;49296;48.188;11.566;2023-09-30T09:03:14;12.43;;;4.82;;
63201;SDS011;49296;48.188;11.566;2023-09-30T09:05:40;12.35;;;5.25;;
63201;SDS011;49296;48.188;11.566;2023-09-30T09:08:09;13.07;;;5.05;;
63201;SDS011;49296;48.188;11.566;2023-09-30T09:10:35;13.90;;;5.15;;
63201;SDS011;49296;48.188;11.566;2023-09-30T09:13:11;11.82;;;4.85;;
63201;SDS011;49296;48.188;11.566;2023-09-30T09:15:38;11.77;;;4.80;;
63201;SDS011;49296;48.188;11.566;2023-09-30T09:18:04;12.55;;;5.13;;
63201;SDS011;49296;48.188;11.566;2023-09-30T09:20:31;13.70;;;5.07;;
63201;SDS011;49296;48.188;11.566;2023-09-30T09:22:59;12.85;;;5.03;;
63201;SDS011;49296;48.188;11.566;2023-09-30T09:25:27;10.98;;;4.20;;
63201;SDS011;49296;48.188;11.566;2023-09-30T09:27:54;11.30;;;4.97;;
63201;SDS011;49296;48.188;11.566;2023-09-30T09:30:22;11.05;;;4.38;;
63201;SDS011;49296;48.188;11.566;2023-09-30T09:32:53;10.60;;;4.10;;
63201;SDS011;49296;48.188;11.566;2023-09-30T09:35:30;12.70;;;4.32;;
63201;SDS011;49296;48.188;11.566;2023-09-30T09:37:58;12.52;;;4.30;;
63201;SDS011;49296;48.188;11.566;2023-09-30T09:40:28;9.77;;;4.43;;
63201;SDS011;49296;48.188;11.566;2023-09-30T09:42:56;14.35;;;4.80;;
63201;SDS011;49296;48.188;11.566;2023-09-30T09:45:24;11.50;;;4.13;;
63201;SDS011;49296;48.188;11.566;2023-09-30T09:47:52;11.40;;;4.53;;
63201;SDS011;49296;48.188;11.566;2023-09-30T09:50:19;10.98;;;4.68;;
63201;SDS011;49296;48.188;11.566;2023-09-30T09:52:48;10.65;;;4.50;;
63201;SDS011;49296;48.188;11.566;2023-09-30T09:55:16;12.38;;;5.00;;
63201;SDS011;49296;48.188;11.566;2023-09-30T09:57:45;10.00;;;3.95;;
63201;SDS011;49296;48.188;11.566;2023-09-30T10:00:13;11.15;;;4.38;;
63201;SDS011;49296;48.188;11.566;2023-09-30T10:02:43;11.40;;;4.70;;
63201;SDS011;49296;48.188;11.566;2023-09-30T10:05:11;10.23;;;4.07;;
63201;SDS011;49296;48.188;11.566;2023-09-30T10:07:39;9.57;;;3.47;;
63201;SDS011;49296;48.188;11.566;2023-09-30T10:10:11;8.95;;;3.65;;
63201;SDS011;49296;48.188;11.566;2023-09-30T10:12:40;9.10;;;3.22;;
63201;SDS011;49296;48.188;11.566;2023-09-30T10:18:06;8.40;;;3.75;;
63201;SDS011;49296;48.188;11.566;2023-09-30T10:20:35;6.88;;;3.78;;
63201;SDS011;49296;48.188;11.566;2023-09-30T10:23:17;11.00;;;4.95;;
63201;SDS011;49296;48.188;11.566;2023-09-30T10:25:45;8.50;;;3.40;;
63201;SDS011;49296;48.188;11.566;2023-09-30T10:28:32;8.13;;;3.30;;
63201;SDS011;49296;48.188;11.566;2023-09-30T10:31:13;8.15;;;3.35;;
63201;SDS011;49296;48.188;11.566;2023-09-30T10:36:47;7.47;;;2.75;;
63201;SDS011;49296;48.188;11.566;2023-09-30T10:39:17;6.80;;;3.00;;
63201;SDS011;49296;48.188;11.566;2023-09-30T10:42:44;8.30;;;3.13;;
63201;SDS011;49296;48.188;11.566;2023-09-30T10:51:11;7.65;;;3.13;;
63201;SDS011;49296;48.188;11.566;2023-09-30T10:53:44;11.25;;;3.05;;
63201;SDS011;49296;48.188;11.566;2023-09-30T10:56:12;8.32;;;3.17;;
63201;SDS011;49296;48.188;11.566;2023-09-30T10:58:39;8.13;;;2.92;;
63201;SDS011;49296;48.188;11.566;2023-09-30T11:01:06;8.38;;;3.17;;
63201;SDS011;49296;48.188;11.566;2023-09-30T11:03:33;10.82;;;3.38;;
63201;SDS011;49296;48.188;11.566;2023-09-30T11:06:02;11.00;;;2.95;;
63201;SDS011;49296;48.188;11.566;2023-09-30T11:08:30;6.95;;;3.22;;
63201;SDS011;49296;48.188;11.566;2023-09-30T11:10:57;8.27;;;3.30;;
63201;SDS011;49296;48.188;11.566;2023-09-30T11:13:27;11.65;;;3.95;;
63201;SDS011;49296;48.188;11.566;2023-09-30T11:16:01;11.48;;;3.90;;
63201;SDS011;49296;48.188;11.566;2023-09-30T11:18:29;10.52;;;3.80;;
63201;SDS011;49296;48.188;11.566;2023-09-30T11:21:05;9.68;;;3.78;;
63201;SDS011;49296;48.188;11.566;2023-09-30T11:23:33;8.65;;;3.63;;
63201;SDS011;49296;48.188;11.566;2023-09-30T11:26:01;11.27;;;3.95;;
63201;SDS011;49296;48.188;11.566;2023-09-30T11:28:35;11.75;;;3.95;;
63201;SDS011;49296;48.188;11.566;2023-09-30T11:31:03;14.07;;;5.18;;
63201;SDS011;49296;48.188;11.566;2023-09-30T11:33:31;12.43;;;5.07;;
63201;SDS011;49296;48.188;11.566;2023-09-30T11:36:00;16.20;;;7.47;;
63201;SDS011;49296;48.188;11.566;2023-09-30T11:38:29;21.33;;;9.45;;
63201;SDS011;49296;48.188;11.566;2023-09-30T11:41:00;13.98;;;5.20;;
63201;SDS011;49296;48.188;11.566;2023-09-30T11:43:29;12.05;;;4.75;;
63201;SDS011;49296;48.188;11.566;2023-09-30T11:46:06;11.23;;;4.32;;
63201;SDS011;49296;48.188;11.566;2023-09-30T11:48:34;15.85;;;6.50;;
63201;SDS011;49296;48.188;11.566;2023-09-30T11:51:02;13.18;;;5.00;;
63201;SDS011;49296;48.188;11.566;2023-09-30T11:53:30;11.80;;;5.55;;
63201;SDS011;49296;48.188;11.566;2023-09-30T11:55:57;13.10;;;5.53;;
63201;SDS011;49296;48.188;11.566;2023-09-30T11:58:25;11.82;;;5.13;;
63201;SDS011;49296;48.188;11.566;2023-09-30T12:00:57;15.35;;;5.70;;
63201;SDS011;49296;48.188;11.566;2023-09-30T12:03:24;14.48;;;6.43;;
63201;SDS011;49296;48.188;11.566;2023-09-30T12:05:52;13.68;;;5.60;;
63201;SDS011;49296;48.188;11.566;2023-09-30T12:08:20;16.77;;;6.05;;
63201;SDS011;49296;48.188;11.566;2023-09-30T12:10:48;15.07;;;6.63;;
63201;SDS011;49296;48.188;11.566;2023-09-30T12:13:15;13.77;;;5.75;;
63201;SDS011;49296;48.188;11.566;2023-09-30T12:15:42;15.98;;;6.28;;
63201;SDS011;49296;48.188;11.566;2023-09-30T12:18:09;16.05;;;7.40;;
63201;SDS011;49296;48.188;11.566;2023-09-30T12:20:38;15.55;;;6.30;;
63201;SDS011;49296;48.188;11.566;2023-09-30T12:23:06;18.02;;;6.93;;
63201;SDS011;49296;48.188;11.566;2023-09-30T12:25:33;14.48;;;6.10;;
63201;SDS011;49296;48.188;11.566;2023-09-30T12:28:02;17.70;;;6.63;;
63201;SDS011;49296;48.188;11.566;2023-09-30T12:30:29;21.02;;;6.82;;
63201;SDS011;49296;48.188;11.566;2023-09-30T12:32:57;17.60;;;6.90;;
63201;SDS011;49296;48.188;11.566;2023-09-30T12:35:23;13.93;;;6.18;;
63201;SDS011;49296;48.188;11.566;2023-09-30T12:37:50;17.15;;;6.55;;
63201;SDS011;49296;48.188;11.566;2023-09-30T12:40:17;13.55;;;5.68;;
63201;SDS011;49296;48.188;11.566;2023-09-30T12:42:44;15.60;;;5.47;;
63201;SDS011;49296;48.188;11.566;2023-09-30T12:45:13;17.33;;;6.07;;
63201;SDS011;49296;48.188;11.566;2023-09-30T12:47:42;13.07;;;6.20;;
63201;SDS011;49296;48.188;11.566;2023-09-30T12:50:09;12.68;;;5.55;;
63201;SDS011;49296;48.188;11.566;2023-09-30T12:52:35;13.82;;;6.28;;
63201;SDS011;49296;48.188;11.566;2023-09-30T12:55:03;14.10;;;5.38;;
63201;SDS011;49296;48.188;11.566;2023-09-30T12:57:31;16.85;;;6.55;;
63201;SDS011;49296;48.188;11.566;2023-09-30T12:59:58;15.13;;;5.55;;
63201;SDS011;49296;48.188;11.566;2023-09-30T13:02:26;12.02;;;5.78;;
63201;SDS011;49296;48.188;11.566;2023-09-30T13:04:52;14.27;;;5.05;;
63201;SDS011;49296;48.188;11.566;2023-09-30T13:07:19;12.50;;;5.40;;
63201;SDS011;49296;48.188;11.566;2023-09-30T13:09:46;15.65;;;6.03;;
63201;SDS011;49296;48.188;11.566;2023-09-30T13:12:12;17.60;;;6.47;;
63201;SDS011;49296;48.188;11.566;2023-09-30T13:14:39;13.98;;;5.88;;
63201;SDS011;49296;48.188;11.566;2023-09-30T13:17:06;15.07;;;5.97;;
63201;SDS011;49296;48.188;11.566;2023-09-30T13:19:34;15.57;;;5.60;;
63201;SDS011;49296;48.188;11.566;2023-09-30T13:22:01;16.70;;;5.82;;
63201;SDS011;49296;48.188;11.566;2023-09-30T13:24:28;14.77;;;6.70;;
63201;SDS011;49296;48.188;11.566;2023-09-30T13:26:54;15.98;;;5.47;;
63201;SDS011;49296;48.188;11.566;2023-09-30T13:29:21;14.90;;;6.50;;
63201;SDS011;49296;48.188;11.566;2023-09-30T13:31:48;15.68;;;6.68;;
63201;SDS011;49296;48.188;11.566;2023-09-30T13:34:15;16.23;;;6.20;;
63201;SDS011;49296;48.188;11.566;2023-09-30T13:36:43;14.35;;;5.82;;
63201;SDS011;49296;48.188;11.566;2023-09-30T13:39:10;15.45;;;5.88;;
63201;SDS011;49296;48.188;11.566;2023-09-30T13:41:38;15.13;;;6.20;;
63201;SDS011;49296;48.188;11.566;2023-09-30T13:44:05;15.32;;;6.97;;
63201;SDS011;49296;48.188;11.566;2023-09-30T13:46:33;16.30;;;7.80;;
63201;SDS011;49296;48.188;11.566;2023-09-30T13:49:00;12.38;;;5.38;;
63201;SDS011;49296;48.188;11.566;2023-09-30T13:51:26;15.15;;;6.20;;
63201;SDS011;49296;48.188;11.566;2023-09-30T13:53:54;13.38;;;5.75;;
63201;SDS011;49296;48.188;11.566;2023-09-30T13:56:21;12.75;;;5.72;;
63201;SDS011;49296;48.188;11.566;2023-09-30T13:58:48;13.80;;;5.70;;
63201;SDS011;49296;48.188;11.566;2023-09-30T14:01:15;14.10;;;6.20;;
63201;SDS011;49296;48.188;11.566;2023-09-30T14:03:43;14.93;;;5.68;;
63201;SDS011;49296;48.188;11.566;2023-09-30T14:06:12;14.35;;;6.60;;
63201;SDS011;49296;48.188;11.566;2023-09-30T14:08:39;15.40;;;6.80;;
63201;SDS011;49296;48.188;11.566;2023-09-30T14:11:09;13.45;;;6.00;;
63201;SDS011;49296;48.188;11.566;2023-09-30T14:13:36;13.88;;;6.30;;
63201;SDS011;49296;48.188;11.566;2023-09-30T14:16:04;15.25;;;6.15;;
63201;SDS011;49296;48.188;11.566;2023-09-30T14:18:31;14.68;;;5.63;;
63201;SDS011;49296;48.188;11.566;2023-09-30T14:20:58;14.90;;;5.88;;
63201;SDS011;49296;48.188;11.566;2023-09-30T14:23:26;13.32;;;6.15;;
63201;SDS011;49296;48.188;11.566;2023-09-30T14:25:53;15.07;;;6.75;;
63201;SDS011;49296;48.188;11.566;2023-09-30T14:28:22;16.17;;;6.07;;
63201;SDS011;49296;48.188;11.566;2023-09-30T14:30:49;15.07;;;6.75;;
63201;SDS011;49296;48.188;11.566;2023-09-30T14:33:16;16.73;;;6.60;;
63201;SDS011;49296;48.188;11.566;2023-09-30T14:35:44;14.52;;;6.15;;
63201;SDS011;49296;48.188;11.566;2023-09-30T14:38:11;13.48;;;6.43;;